SEY9600 FSIA-FSIA
Flight info
| Callsign | SEY9600 |
|---|---|
| Flight time | 0h 38m |
| Altitude | 11000 |
| Route | TETIX |
| Aircraft | A320/M-SDE3FGHIRWY/LB1 |
Departure
| Time | 2026-04-25 11:36 |
|---|---|
| Airport | Seychelles International Airport (FSIA) |
Arrival
| Time | 2026-04-25 12:14 |
|---|---|
| Airport | Seychelles International Airport (FSIA) |
| Time | Latitude | Longitude | Altitude | Speed | Heading |
|---|---|---|---|---|---|
| 2026-04-25 11:18 | -4.67020 | 55.51136 | 21 ft | 0 kts | 215° |
| 2026-04-25 11:23 | -4.67019 | 55.51136 | 20 ft | 2 kts | 215° |
| 2026-04-25 11:23 | -4.67007 | 55.51145 | 23 ft | 2 kts | 215° |
| 2026-04-25 11:23 | -4.66995 | 55.51154 | 23 ft | 2 kts | 215° |
| 2026-04-25 11:23 | -4.66982 | 55.51163 | 22 ft | 2 kts | 215° |
| 2026-04-25 11:24 | -4.66970 | 55.51171 | 22 ft | 2 kts | 215° |
| 2026-04-25 11:24 | -4.66957 | 55.51180 | 23 ft | 2 kts | 215° |
| 2026-04-25 11:24 | -4.66945 | 55.51189 | 23 ft | 2 kts | 215° |
| 2026-04-25 11:24 | -4.66933 | 55.51198 | 23 ft | 2 kts | 215° |
| 2026-04-25 11:25 | -4.66928 | 55.51201 | 22 ft | 0 kts | 215° |
| 2026-04-25 11:27 | -4.66929 | 55.51201 | 22 ft | 1 kts | 215° |
| 2026-04-25 11:28 | -4.66967 | 55.51195 | 22 ft | 5 kts | 164° |
| 2026-04-25 11:28 | -4.66993 | 55.51216 | 20 ft | 5 kts | 128° |
| 2026-04-25 11:28 | -4.67010 | 55.51241 | 20 ft | 4 kts | 124° |
| 2026-04-25 11:28 | -4.67004 | 55.51291 | 20 ft | 11 kts | 48° |
| 2026-04-25 11:29 | -4.66939 | 55.51337 | 21 ft | 12 kts | 34° |
| 2026-04-25 11:29 | -4.66883 | 55.51387 | 22 ft | 9 kts | 68° |
| 2026-04-25 11:29 | -4.66892 | 55.51414 | 23 ft | 2 kts | 144° |
| 2026-04-25 11:29 | -4.66913 | 55.51429 | 22 ft | 9 kts | 141° |
| 2026-04-25 11:30 | -4.66968 | 55.51502 | 22 ft | 14 kts | 125° |
| 2026-04-25 11:30 | -4.67024 | 55.51582 | 22 ft | 14 kts | 124° |
| 2026-04-25 11:30 | -4.67079 | 55.51661 | 21 ft | 14 kts | 124° |
| 2026-04-25 11:30 | -4.67133 | 55.51740 | 21 ft | 13 kts | 124° |
| 2026-04-25 11:31 | -4.67184 | 55.51813 | 22 ft | 12 kts | 124° |
| 2026-04-25 11:31 | -4.67230 | 55.51879 | 23 ft | 11 kts | 124° |
| 2026-04-25 11:31 | -4.67273 | 55.51943 | 23 ft | 11 kts | 124° |
| 2026-04-25 11:31 | -4.67317 | 55.52006 | 22 ft | 11 kts | 124° |
| 2026-04-25 11:32 | -4.67387 | 55.52108 | 23 ft | 24 kts | 124° |
| 2026-04-25 11:32 | -4.67480 | 55.52245 | 22 ft | 24 kts | 124° |
| 2026-04-25 11:32 | -4.67576 | 55.52387 | 23 ft | 25 kts | 124° |
| 2026-04-25 11:32 | -4.67675 | 55.52526 | 21 ft | 25 kts | 124° |
| 2026-04-25 11:33 | -4.67775 | 55.52673 | 20 ft | 25 kts | 124° |
| 2026-04-25 11:33 | -4.67875 | 55.52820 | 21 ft | 26 kts | 124° |
| 2026-04-25 11:33 | -4.67977 | 55.52972 | 22 ft | 27 kts | 124° |
| 2026-04-25 11:33 | -4.68090 | 55.53129 | 23 ft | 26 kts | 130° |
| 2026-04-25 11:34 | -4.68251 | 55.53179 | 21 ft | 20 kts | 154° |
| 2026-04-25 11:34 | -4.68271 | 55.53225 | 21 ft | 2 kts | 52° |
| 2026-04-25 11:34 | -4.68241 | 55.53251 | 21 ft | 10 kts | 40° |
| 2026-04-25 11:34 | -4.68184 | 55.53270 | 22 ft | 7 kts | 328° |
| 2026-04-25 11:35 | -4.68161 | 55.53232 | 23 ft | 7 kts | 304° |
| 2026-04-25 11:35 | -4.68127 | 55.53182 | 23 ft | 10 kts | 304° |
| 2026-04-25 11:35 | -4.68039 | 55.53048 | 23 ft | 57 kts | 303° |
| 2026-04-25 11:35 | -4.67627 | 55.52460 | 22 ft | 143 kts | 306° |
| 2026-04-25 11:36 | -4.67008 | 55.51569 | 587 ft | 162 kts | 307° |
| 2026-04-25 11:36 | -4.66247 | 55.50698 | 1487 ft | 169 kts | 312° |
| 2026-04-25 11:36 | -4.65392 | 55.49815 | 2342 ft | 180 kts | 313° |
| 2026-04-25 11:36 | -4.64406 | 55.49005 | 2848 ft | 191 kts | 332° |
| 2026-04-25 11:37 | -4.63072 | 55.48629 | 3263 ft | 211 kts | 351° |
| 2026-04-25 11:37 | -4.61534 | 55.48399 | 3604 ft | 233 kts | 351° |
| 2026-04-25 11:37 | -4.59835 | 55.48138 | 4001 ft | 259 kts | 351° |
| 2026-04-25 11:37 | -4.58017 | 55.47856 | 4678 ft | 273 kts | 351° |
| 2026-04-25 11:38 | -4.56110 | 55.47558 | 5511 ft | 280 kts | 351° |
| 2026-04-25 11:38 | -4.54150 | 55.47393 | 5866 ft | 284 kts | 6° |
| 2026-04-25 11:38 | -4.52289 | 55.48035 | 6057 ft | 287 kts | 35° |
| 2026-04-25 11:38 | -4.50835 | 55.49422 | 6869 ft | 289 kts | 47° |
| 2026-04-25 11:39 | -4.49462 | 55.50872 | 7756 ft | 291 kts | 46° |
| 2026-04-25 11:39 | -4.48053 | 55.52340 | 8602 ft | 294 kts | 46° |
| 2026-04-25 11:39 | -4.46629 | 55.53817 | 9452 ft | 296 kts | 46° |
| 2026-04-25 11:39 | -4.45187 | 55.55313 | 10193 ft | 301 kts | 46° |
| 2026-04-25 11:40 | -4.43689 | 55.56870 | 10417 ft | 324 kts | 46° |
| 2026-04-25 11:40 | -4.42063 | 55.58563 | 10557 ft | 347 kts | 46° |
| 2026-04-25 11:40 | -4.40339 | 55.60361 | 10759 ft | 364 kts | 46° |
| 2026-04-25 11:40 | -4.38559 | 55.62218 | 10837 ft | 375 kts | 46° |
| 2026-04-25 11:41 | -4.36696 | 55.64159 | 10847 ft | 396 kts | 46° |
| 2026-04-25 11:41 | -4.34785 | 55.66146 | 10847 ft | 404 kts | 46° |
| 2026-04-25 11:41 | -4.32828 | 55.68182 | 10844 ft | 405 kts | 46° |
| 2026-04-25 11:41 | -4.30865 | 55.70225 | 10842 ft | 406 kts | 46° |
| 2026-04-25 11:42 | -4.28903 | 55.72273 | 10844 ft | 406 kts | 46° |
| 2026-04-25 11:42 | -4.26973 | 55.74288 | 10841 ft | 406 kts | 46° |
| 2026-04-25 11:42 | -4.25009 | 55.76337 | 10841 ft | 406 kts | 46° |
| 2026-04-25 11:42 | -4.23056 | 55.78372 | 10836 ft | 398 kts | 46° |
| 2026-04-25 11:43 | -4.21193 | 55.80312 | 10832 ft | 374 kts | 46° |
| 2026-04-25 11:43 | -4.19427 | 55.82155 | 10835 ft | 368 kts | 46° |
| 2026-04-25 11:43 | -4.17660 | 55.83999 | 10836 ft | 367 kts | 46° |
| 2026-04-25 11:43 | -4.15987 | 55.85988 | 10820 ft | 385 kts | 57° |
| 2026-04-25 11:44 | -4.14944 | 55.88477 | 10595 ft | 392 kts | 78° |
| 2026-04-25 11:44 | -4.14841 | 55.91205 | 10358 ft | 393 kts | 98° |
| 2026-04-25 11:44 | -4.15671 | 55.93770 | 10127 ft | 393 kts | 118° |
| 2026-04-25 11:44 | -4.17312 | 55.95894 | 9895 ft | 379 kts | 137° |
| 2026-04-25 11:45 | -4.18737 | 55.96924 | 9758 ft | 368 kts | 151° |
| 2026-04-25 11:45 | -4.21857 | 55.97897 | 9592 ft | 346 kts | 175° |
| 2026-04-25 11:45 | -4.24207 | 55.97761 | 9460 ft | 331 kts | 192° |
| 2026-04-25 11:45 | -4.26290 | 55.96993 | 9340 ft | 318 kts | 209° |
| 2026-04-25 11:46 | -4.28183 | 55.95922 | 9212 ft | 306 kts | 210° |
| 2026-04-25 11:46 | -4.30014 | 55.94883 | 9088 ft | 298 kts | 210° |
| 2026-04-25 11:46 | -4.31817 | 55.93865 | 8963 ft | 295 kts | 210° |
| 2026-04-25 11:46 | -4.33589 | 55.92870 | 8841 ft | 294 kts | 209° |
| 2026-04-25 11:47 | -4.35378 | 55.91866 | 8712 ft | 294 kts | 210° |
| 2026-04-25 11:47 | -4.37161 | 55.90865 | 8596 ft | 293 kts | 210° |
| 2026-04-25 11:47 | -4.38942 | 55.89866 | 8466 ft | 292 kts | 209° |
| 2026-04-25 11:47 | -4.40715 | 55.88870 | 8353 ft | 291 kts | 210° |
| 2026-04-25 11:48 | -4.42465 | 55.87889 | 8235 ft | 290 kts | 210° |
| 2026-04-25 11:48 | -4.44236 | 55.86896 | 8109 ft | 290 kts | 209° |
| 2026-04-25 11:48 | -4.45994 | 55.85909 | 7995 ft | 289 kts | 210° |
| 2026-04-25 11:48 | -4.47747 | 55.84923 | 7872 ft | 288 kts | 210° |
| 2026-04-25 11:49 | -4.49472 | 55.83952 | 7752 ft | 287 kts | 210° |
| 2026-04-25 11:49 | -4.51222 | 55.82965 | 7500 ft | 288 kts | 210° |
| 2026-04-25 11:49 | -4.52979 | 55.81974 | 7122 ft | 289 kts | 210° |
| 2026-04-25 11:49 | -4.54704 | 55.81004 | 6764 ft | 288 kts | 210° |
| 2026-04-25 11:50 | -4.56445 | 55.80025 | 6504 ft | 284 kts | 210° |
| 2026-04-25 11:50 | -4.58161 | 55.79061 | 5997 ft | 280 kts | 210° |
| 2026-04-25 11:50 | -4.59852 | 55.78110 | 5475 ft | 275 kts | 210° |
| 2026-04-25 11:50 | -4.61498 | 55.77180 | 5079 ft | 266 kts | 210° |
| 2026-04-25 11:51 | -4.63063 | 55.76295 | 4706 ft | 257 kts | 210° |
| 2026-04-25 11:51 | -4.64597 | 55.75431 | 4389 ft | 245 kts | 209° |
| 2026-04-25 11:51 | -4.66018 | 55.74631 | 4350 ft | 222 kts | 209° |
| 2026-04-25 11:51 | -4.67347 | 55.73884 | 4353 ft | 216 kts | 210° |
| 2026-04-25 11:52 | -4.68660 | 55.73146 | 4356 ft | 216 kts | 210° |
| 2026-04-25 11:52 | -4.69945 | 55.72367 | 4318 ft | 218 kts | 214° |
| 2026-04-25 11:52 | -4.71214 | 55.71497 | 3925 ft | 225 kts | 214° |
| 2026-04-25 11:52 | -4.72494 | 55.70618 | 3729 ft | 219 kts | 214° |
| 2026-04-25 11:53 | -4.73730 | 55.69768 | 3610 ft | 210 kts | 214° |
| 2026-04-25 11:53 | -4.74887 | 55.68917 | 3406 ft | 206 kts | 223° |
| 2026-04-25 11:53 | -4.75748 | 55.67774 | 3056 ft | 209 kts | 244° |
| 2026-04-25 11:53 | -4.76151 | 55.66404 | 2875 ft | 203 kts | 264° |
| 2026-04-25 11:54 | -4.76069 | 55.65013 | 2697 ft | 198 kts | 283° |
| 2026-04-25 11:54 | -4.75528 | 55.63755 | 2507 ft | 194 kts | 303° |
| 2026-04-25 11:54 | -4.74014 | 55.61590 | 2009 ft | 188 kts | 304° |
| 2026-04-25 11:55 | -4.73266 | 55.60520 | 1769 ft | 185 kts | 304° |
| 2026-04-25 11:55 | -4.72537 | 55.59479 | 1527 ft | 176 kts | 304° |
| 2026-04-25 11:55 | -4.71865 | 55.58520 | 1334 ft | 158 kts | 304° |
| 2026-04-25 11:55 | -4.71261 | 55.57657 | 1126 ft | 146 kts | 304° |
| 2026-04-25 11:56 | -4.70693 | 55.56843 | 943 ft | 140 kts | 304° |
| 2026-04-25 11:56 | -4.70148 | 55.56066 | 772 ft | 136 kts | 304° |
| 2026-04-25 11:56 | -4.69611 | 55.55297 | 596 ft | 133 kts | 305° |
| 2026-04-25 11:56 | -4.69028 | 55.54470 | 894 ft | 150 kts | 304° |
| 2026-04-25 11:57 | -4.68472 | 55.53695 | 1881 ft | 128 kts | 305° |
| 2026-04-25 11:57 | -4.67921 | 55.52918 | 2441 ft | 149 kts | 304° |
| 2026-04-25 11:57 | -4.67072 | 55.52276 | 2783 ft | 167 kts | 350° |
| 2026-04-25 11:57 | -4.65932 | 55.52582 | 3008 ft | 188 kts | 40° |
| 2026-04-25 11:58 | -4.65099 | 55.53682 | 3176 ft | 209 kts | 61° |
| 2026-04-25 11:58 | -4.64423 | 55.55017 | 3583 ft | 217 kts | 65° |
| 2026-04-25 11:58 | -4.63771 | 55.56395 | 4061 ft | 221 kts | 65° |
| 2026-04-25 11:58 | -4.63097 | 55.57790 | 4438 ft | 224 kts | 64° |
| 2026-04-25 11:59 | -4.62399 | 55.59180 | 4489 ft | 223 kts | 63° |
| 2026-04-25 11:59 | -4.61691 | 55.60547 | 4509 ft | 223 kts | 62° |
| 2026-04-25 11:59 | -4.60960 | 55.61922 | 4508 ft | 222 kts | 62° |
| 2026-04-25 12:00 | -4.59737 | 55.64186 | 4495 ft | 222 kts | 62° |
| 2026-04-25 12:00 | -4.58752 | 55.65990 | 4504 ft | 222 kts | 61° |
| 2026-04-25 12:00 | -4.57510 | 55.68250 | 4500 ft | 222 kts | 62° |
| 2026-04-25 12:01 | -4.56764 | 55.69606 | 4502 ft | 222 kts | 61° |
| 2026-04-25 12:01 | -4.56015 | 55.70964 | 4489 ft | 222 kts | 61° |
| 2026-04-25 12:01 | -4.55267 | 55.72322 | 4492 ft | 222 kts | 61° |
| 2026-04-25 12:01 | -4.54521 | 55.73679 | 4497 ft | 222 kts | 61° |
| 2026-04-25 12:02 | -4.52997 | 55.76368 | 4485 ft | 222 kts | 52° |
| 2026-04-25 12:02 | -4.51830 | 55.77335 | 4494 ft | 221 kts | 23° |
| 2026-04-25 12:02 | -4.50340 | 55.77622 | 4489 ft | 219 kts | 353° |
| 2026-04-25 12:03 | -4.48905 | 55.77146 | 4491 ft | 218 kts | 324° |
| 2026-04-25 12:03 | -4.47889 | 55.76072 | 4491 ft | 216 kts | 296° |
| 2026-04-25 12:03 | -4.47455 | 55.74640 | 4493 ft | 215 kts | 278° |
| 2026-04-25 12:03 | -4.47202 | 55.73158 | 4493 ft | 216 kts | 278° |
| 2026-04-25 12:04 | -4.46949 | 55.71689 | 4496 ft | 216 kts | 279° |
| 2026-04-25 12:04 | -4.46692 | 55.70200 | 4496 ft | 216 kts | 279° |
| 2026-04-25 12:04 | -4.46434 | 55.68714 | 4496 ft | 216 kts | 279° |
| 2026-04-25 12:04 | -4.46174 | 55.67233 | 4499 ft | 216 kts | 279° |
| 2026-04-25 12:05 | -4.45916 | 55.65768 | 4499 ft | 216 kts | 279° |
| 2026-04-25 12:05 | -4.45654 | 55.64286 | 4500 ft | 216 kts | 279° |
| 2026-04-25 12:05 | -4.45391 | 55.62801 | 4501 ft | 215 kts | 279° |
| 2026-04-25 12:05 | -4.45130 | 55.61321 | 4501 ft | 215 kts | 279° |
| 2026-04-25 12:06 | -4.44873 | 55.59857 | 4498 ft | 215 kts | 279° |
| 2026-04-25 12:06 | -4.44612 | 55.58370 | 4486 ft | 215 kts | 279° |
| 2026-04-25 12:06 | -4.44353 | 55.56894 | 4488 ft | 215 kts | 279° |
| 2026-04-25 12:06 | -4.44091 | 55.55410 | 4488 ft | 216 kts | 279° |
| 2026-04-25 12:07 | -4.43832 | 55.53950 | 4489 ft | 215 kts | 279° |
| 2026-04-25 12:07 | -4.43573 | 55.52474 | 4488 ft | 215 kts | 279° |
| 2026-04-25 12:07 | -4.43310 | 55.50990 | 4488 ft | 215 kts | 279° |
| 2026-04-25 12:07 | -4.43059 | 55.49505 | 4488 ft | 215 kts | 274° |
| 2026-04-25 12:08 | -4.43265 | 55.48064 | 4491 ft | 212 kts | 244° |
| 2026-04-25 12:08 | -4.44159 | 55.46905 | 4491 ft | 212 kts | 216° |
| 2026-04-25 12:08 | -4.45513 | 55.46340 | 4490 ft | 213 kts | 186° |
| 2026-04-25 12:08 | -4.46999 | 55.46314 | 4489 ft | 214 kts | 180° |
| 2026-04-25 12:09 | -4.48503 | 55.46325 | 4183 ft | 215 kts | 180° |
| 2026-04-25 12:09 | -4.49951 | 55.46334 | 3870 ft | 206 kts | 180° |
| 2026-04-25 12:09 | -4.51360 | 55.46342 | 3598 ft | 197 kts | 180° |
| 2026-04-25 12:09 | -4.52708 | 55.46349 | 3304 ft | 189 kts | 181° |
| 2026-04-25 12:10 | -4.54000 | 55.46354 | 3011 ft | 180 kts | 181° |
| 2026-04-25 12:10 | -4.55218 | 55.46359 | 2763 ft | 167 kts | 180° |
| 2026-04-25 12:10 | -4.56295 | 55.46364 | 2529 ft | 149 kts | 181° |
| 2026-04-25 12:10 | -4.57312 | 55.46366 | 2313 ft | 143 kts | 181° |
| 2026-04-25 12:11 | -4.58299 | 55.46367 | 2113 ft | 142 kts | 181° |
| 2026-04-25 12:11 | -4.59280 | 55.46369 | 1919 ft | 140 kts | 180° |
| 2026-04-25 12:11 | -4.60241 | 55.46371 | 1732 ft | 139 kts | 180° |
| 2026-04-25 12:11 | -4.61213 | 55.46374 | 1546 ft | 139 kts | 181° |
| 2026-04-25 12:12 | -4.62181 | 55.46393 | 1346 ft | 139 kts | 174° |
| 2026-04-25 12:12 | -4.62810 | 55.46536 | 1216 ft | 140 kts | 162° |
| 2026-04-25 12:12 | -4.63899 | 55.47212 | 964 ft | 140 kts | 136° |
| 2026-04-25 12:12 | -4.64499 | 55.47993 | 777 ft | 142 kts | 125° |
| 2026-04-25 12:13 | -4.65067 | 55.48811 | 602 ft | 143 kts | 124° |
| 2026-04-25 12:13 | -4.65652 | 55.49624 | 420 ft | 143 kts | 126° |
| 2026-04-25 12:13 | -4.66237 | 55.50436 | 260 ft | 144 kts | 124° |
| 2026-04-25 12:13 | -4.66797 | 55.51246 | 82 ft | 142 kts | 124° |
| 2026-04-25 12:14 | -4.67325 | 55.52027 | 22 ft | 112 kts | 124° |
| 2026-04-25 12:14 | -4.67597 | 55.52419 | 21 ft | 26 kts | 126° |
| 2026-04-25 12:14 | -4.67623 | 55.52455 | 21 ft | 9 kts | 126° |
| 2026-04-25 12:14 | -4.67686 | 55.52545 | 20 ft | 19 kts | 125° |
| 2026-04-25 12:15 | -4.67766 | 55.52661 | 20 ft | 21 kts | 124° |
| 2026-04-25 12:15 | -4.67853 | 55.52788 | 21 ft | 23 kts | 124° |
| 2026-04-25 12:15 | -4.67951 | 55.52930 | 22 ft | 26 kts | 125° |
| 2026-04-25 12:15 | -4.68038 | 55.53056 | 23 ft | 14 kts | 124° |
| 2026-04-25 12:16 | -4.68105 | 55.53136 | 23 ft | 17 kts | 147° |
| 2026-04-25 12:16 | -4.68215 | 55.53169 | 21 ft | 14 kts | 167° |
| 2026-04-25 12:16 | -4.68267 | 55.53217 | 21 ft | 9 kts | 91° |
| 2026-04-25 12:16 | -4.68263 | 55.53229 | 21 ft | 0 kts | 67° |
| 2026-04-25 12:18 | -4.68262 | 55.53231 | 21 ft | 1 kts | 66° |
| 2026-04-25 12:18 | -4.68237 | 55.53253 | 21 ft | 8 kts | 35° |
| 2026-04-25 12:18 | -4.68174 | 55.53252 | 24 ft | 12 kts | 311° |
| 2026-04-25 12:18 | -4.68111 | 55.53161 | 23 ft | 19 kts | 304° |
| 2026-04-25 12:19 | -4.67968 | 55.52952 | 22 ft | 25 kts | 304° |
| 2026-04-25 12:19 | -4.67828 | 55.52745 | 21 ft | 29 kts | 304° |
| 2026-04-25 12:19 | -4.67710 | 55.52575 | 20 ft | 32 kts | 305° |
| 2026-04-25 12:20 | -4.67571 | 55.52372 | 22 ft | 36 kts | 304° |
| 2026-04-25 12:20 | -4.67423 | 55.52159 | 23 ft | 38 kts | 304° |
| 2026-04-25 12:20 | -4.67270 | 55.51938 | 23 ft | 39 kts | 304° |
| 2026-04-25 12:20 | -4.67113 | 55.51712 | 21 ft | 41 kts | 304° |
| 2026-04-25 12:21 | -4.66962 | 55.51492 | 22 ft | 27 kts | 304° |
| 2026-04-25 12:21 | -4.66904 | 55.51374 | 22 ft | 13 kts | 257° |
| 2026-04-25 12:21 | -4.66976 | 55.51309 | 21 ft | 7 kts | 214° |
| 2026-04-25 12:21 | -4.67019 | 55.51272 | 21 ft | 9 kts | 246° |
| 2026-04-25 12:22 | -4.66992 | 55.51210 | 22 ft | 12 kts | 315° |
| 2026-04-25 12:22 | -4.66991 | 55.51157 | 20 ft | 9 kts | 218° |
| 2026-04-25 12:22 | -4.67024 | 55.51133 | 20 ft | 1 kts | 216° |